sensor_id;sensor_type;location;lat;lon;timestamp;temperature;humidity
3202;DHT22;34843;48.744;8.958;2023-03-23T00:01:00;12.80;99.90
3202;DHT22;34843;48.744;8.958;2023-03-23T00:03:26;12.80;99.90
3202;DHT22;34843;48.744;8.958;2023-03-23T00:05:54;12.70;99.90
3202;DHT22;34843;48.744;8.958;2023-03-23T00:08:28;12.80;99.90
3202;DHT22;34843;48.744;8.958;2023-03-23T00:10:54;12.70;99.90
3202;DHT22;34843;48.744;8.958;2023-03-23T00:13:24;12.80;99.90
3202;DHT22;34843;48.744;8.958;2023-03-23T00:15:50;12.80;99.90
3202;DHT22;34843;48.744;8.958;2023-03-23T00:18:20;12.70;99.90
3202;DHT22;34843;48.744;8.958;2023-03-23T00:20:57;12.80;99.90
3202;DHT22;34843;48.744;8.958;2023-03-23T00:23:25;12.70;99.90
3202;DHT22;34843;48.744;8.958;2023-03-23T00:25:54;12.80;99.90
3202;DHT22;34843;48.744;8.958;2023-03-23T00:28:24;12.70;99.90
3202;DHT22;34843;48.744;8.958;2023-03-23T00:31:02;12.70;99.90
3202;DHT22;34843;48.744;8.958;2023-03-23T00:33:30;12.70;99.90
3202;DHT22;34843;48.744;8.958;2023-03-23T00:35:59;12.60;99.90
3202;DHT22;34843;48.744;8.958;2023-03-23T00:38:24;12.60;99.90
3202;DHT22;34843;48.744;8.958;2023-03-23T00:40:50;12.60;99.90
3202;DHT22;34843;48.744;8.958;2023-03-23T00:43:18;12.60;99.90
3202;DHT22;34843;48.744;8.958;2023-03-23T00:45:45;12.60;99.90
3202;DHT22;34843;48.744;8.958;2023-03-23T00:48:21;12.60;99.90
3202;DHT22;34843;48.744;8.958;2023-03-23T00:50:47;12.60;99.90
3202;DHT22;34843;48.744;8.958;2023-03-23T00:53:13;12.60;99.90
3202;DHT22;34843;48.744;8.958;2023-03-23T00:55:44;12.60;99.90
3202;DHT22;34843;48.744;8.958;2023-03-23T00:58:11;12.60;99.90
3202;DHT22;34843;48.744;8.958;2023-03-23T01:00:37;12.50;99.90
3202;DHT22;34843;48.744;8.958;2023-03-23T01:03:03;12.50;99.90
3202;DHT22;34843;48.744;8.958;2023-03-23T01:05:28;12.50;99.90
3202;DHT22;34843;48.744;8.958;2023-03-23T01:07:58;12.40;99.90
3202;DHT22;34843;48.744;8.958;2023-03-23T01:10:23;12.40;99.90
3202;DHT22;34843;48.744;8.958;2023-03-23T01:12:51;12.40;99.90
3202;DHT22;34843;48.744;8.958;2023-03-23T01:15:18;12.40;99.90
3202;DHT22;34843;48.744;8.958;2023-03-23T01:17:44;12.30;99.90
3202;DHT22;34843;48.744;8.958;2023-03-23T01:20:11;12.20;99.90
3202;DHT22;34843;48.744;8.958;2023-03-23T01:22:38;12.10;99.90
3202;DHT22;34843;48.744;8.958;2023-03-23T01:25:05;12.10;99.90
3202;DHT22;34843;48.744;8.958;2023-03-23T01:27:31;12.10;99.90
3202;DHT22;34843;48.744;8.958;2023-03-23T01:29:56;12.10;99.90
3202;DHT22;34843;48.744;8.958;2023-03-23T01:32:22;12.20;99.90
3202;DHT22;34843;48.744;8.958;2023-03-23T01:34:47;12.20;99.90
3202;DHT22;34843;48.744;8.958;2023-03-23T01:37:13;12.20;99.90
3202;DHT22;34843;48.744;8.958;2023-03-23T01:39:38;12.10;99.90
3202;DHT22;34843;48.744;8.958;2023-03-23T01:42:04;12.00;99.90
3202;DHT22;34843;48.744;8.958;2023-03-23T01:46:56;11.90;99.90
3202;DHT22;34843;48.744;8.958;2023-03-23T01:49:25;11.90;99.90
3202;DHT22;34843;48.744;8.958;2023-03-23T01:51:55;11.80;99.90
3202;DHT22;34843;48.744;8.958;2023-03-23T01:54:23;11.80;99.90
3202;DHT22;34843;48.744;8.958;2023-03-23T01:57:14;11.80;99.90
3202;DHT22;34843;48.744;8.958;2023-03-23T01:59:39;11.80;99.90
3202;DHT22;34843;48.744;8.958;2023-03-23T02:02:05;11.80;99.90
3202;DHT22;34843;48.744;8.958;2023-03-23T02:04:31;11.70;99.90
3202;DHT22;34843;48.744;8.958;2023-03-23T02:06:59;11.70;99.90
3202;DHT22;34843;48.744;8.958;2023-03-23T02:09:25;11.60;99.90
3202;DHT22;34843;48.744;8.958;2023-03-23T02:11:52;11.60;99.90
3202;DHT22;34843;48.744;8.958;2023-03-23T02:14:19;11.60;99.90
3202;DHT22;34843;48.744;8.958;2023-03-23T02:16:59;11.50;99.90
3202;DHT22;34843;48.744;8.958;2023-03-23T02:31:02;11.50;99.90
3202;DHT22;34843;48.744;8.958;2023-03-23T02:33:38;11.50;99.90
3202;DHT22;34843;48.744;8.958;2023-03-23T02:36:13;11.50;99.90
3202;DHT22;34843;48.744;8.958;2023-03-23T02:38:53;11.50;99.90
3202;DHT22;34843;48.744;8.958;2023-03-23T02:41:24;11.40;99.90
3202;DHT22;34843;48.744;8.958;2023-03-23T02:43:52;11.40;99.90
3202;DHT22;34843;48.744;8.958;2023-03-23T02:46:20;11.40;99.90
3202;DHT22;34843;48.744;8.958;2023-03-23T02:48:47;11.30;99.90
3202;DHT22;34843;48.744;8.958;2023-03-23T02:51:19;11.30;99.90
3202;DHT22;34843;48.744;8.958;2023-03-23T02:53:46;11.30;99.90
3202;DHT22;34843;48.744;8.958;2023-03-23T02:56:14;11.30;99.90
3202;DHT22;34843;48.744;8.958;2023-03-23T02:58:39;11.30;99.90
3202;DHT22;34843;48.744;8.958;2023-03-23T03:03:50;11.40;99.90
3202;DHT22;34843;48.744;8.958;2023-03-23T03:06:27;11.40;99.90
3202;DHT22;34843;48.744;8.958;2023-03-23T03:09:07;11.40;99.90
3202;DHT22;34843;48.744;8.958;2023-03-23T03:11:35;11.40;99.90
3202;DHT22;34843;48.744;8.958;2023-03-23T03:14:13;11.40;99.90
3202;DHT22;34843;48.744;8.958;2023-03-23T03:17:01;11.40;99.90
3202;DHT22;34843;48.744;8.958;2023-03-23T03:19:38;11.40;99.90
3202;DHT22;34843;48.744;8.958;2023-03-23T03:22:06;11.40;99.90
3202;DHT22;34843;48.744;8.958;2023-03-23T03:24:33;11.40;99.90
3202;DHT22;34843;48.744;8.958;2023-03-23T03:27:00;11.40;99.90
3202;DHT22;34843;48.744;8.958;2023-03-23T03:29:30;11.40;99.90
3202;DHT22;34843;48.744;8.958;2023-03-23T03:31:58;11.50;99.90
3202;DHT22;34843;48.744;8.958;2023-03-23T03:34:25;11.50;99.90
3202;DHT22;34843;48.744;8.958;2023-03-23T03:36:52;11.50;99.90
3202;DHT22;34843;48.744;8.958;2023-03-23T03:39:19;11.50;99.90
3202;DHT22;34843;48.744;8.958;2023-03-23T03:41:46;11.60;99.90
3202;DHT22;34843;48.744;8.958;2023-03-23T03:44:12;11.60;99.90
3202;DHT22;34843;48.744;8.958;2023-03-23T03:46:37;11.60;99.90
3202;DHT22;34843;48.744;8.958;2023-03-23T03:49:06;11.50;99.90
3202;DHT22;34843;48.744;8.958;2023-03-23T03:51:33;11.50;99.90
3202;DHT22;34843;48.744;8.958;2023-03-23T03:53:59;11.60;99.90
3202;DHT22;34843;48.744;8.958;2023-03-23T03:56:24;11.60;99.90
3202;DHT22;34843;48.744;8.958;2023-03-23T03:58:52;11.60;99.90
3202;DHT22;34843;48.744;8.958;2023-03-23T04:01:19;11.60;99.90
3202;DHT22;34843;48.744;8.958;2023-03-23T04:03:48;11.60;99.90
3202;DHT22;34843;48.744;8.958;2023-03-23T04:06:14;11.60;99.90
3202;DHT22;34843;48.744;8.958;2023-03-23T04:08:39;11.60;99.90
3202;DHT22;34843;48.744;8.958;2023-03-23T04:11:10;11.70;99.90
3202;DHT22;34843;48.744;8.958;2023-03-23T04:13:37;11.70;99.90
3202;DHT22;34843;48.744;8.958;2023-03-23T04:16:03;11.60;99.90
3202;DHT22;34843;48.744;8.958;2023-03-23T04:18:29;11.60;99.90
3202;DHT22;34843;48.744;8.958;2023-03-23T04:20:58;11.50;99.90
3202;DHT22;34843;48.744;8.958;2023-03-23T04:23:25;11.50;99.90
3202;DHT22;34843;48.744;8.958;2023-03-23T04:25:52;11.50;99.90
3202;DHT22;34843;48.744;8.958;2023-03-23T04:28:22;11.50;99.90
3202;DHT22;34843;48.744;8.958;2023-03-23T04:30:49;11.60;99.90
3202;DHT22;34843;48.744;8.958;2023-03-23T04:33:25;11.70;99.90
3202;DHT22;34843;48.744;8.958;2023-03-23T04:35:52;11.80;99.90
3202;DHT22;34843;48.744;8.958;2023-03-23T04:38:18;11.90;99.90
3202;DHT22;34843;48.744;8.958;2023-03-23T04:40:49;11.90;99.90
3202;DHT22;34843;48.744;8.958;2023-03-23T04:43:19;11.90;99.90
3202;DHT22;34843;48.744;8.958;2023-03-23T04:45:47;12.00;99.90
3202;DHT22;34843;48.744;8.958;2023-03-23T04:48:13;12.00;99.90
3202;DHT22;34843;48.744;8.958;2023-03-23T04:50:39;11.90;99.90
3202;DHT22;34843;48.744;8.958;2023-03-23T04:53:04;11.90;99.90
3202;DHT22;34843;48.744;8.958;2023-03-23T04:55:31;11.90;99.90
3202;DHT22;34843;48.744;8.958;2023-03-23T04:57:57;11.80;99.90
3202;DHT22;34843;48.744;8.958;2023-03-23T05:00:26;11.80;99.90
3202;DHT22;34843;48.744;8.958;2023-03-23T05:02:52;11.80;99.90
3202;DHT22;34843;48.744;8.958;2023-03-23T05:05:19;11.80;99.90
3202;DHT22;34843;48.744;8.958;2023-03-23T05:07:45;11.80;99.90
3202;DHT22;34843;48.744;8.958;2023-03-23T05:10:12;11.80;99.90
3202;DHT22;34843;48.744;8.958;2023-03-23T05:12:38;11.80;99.90
3202;DHT22;34843;48.744;8.958;2023-03-23T05:15:04;11.80;99.90
3202;DHT22;34843;48.744;8.958;2023-03-23T05:17:30;11.80;99.90
3202;DHT22;34843;48.744;8.958;2023-03-23T05:19:57;11.80;99.90
3202;DHT22;34843;48.744;8.958;2023-03-23T05:22:23;11.80;99.90
3202;DHT22;34843;48.744;8.958;2023-03-23T05:24:51;11.80;99.90
3202;DHT22;34843;48.744;8.958;2023-03-23T05:27:18;11.80;99.90
3202;DHT22;34843;48.744;8.958;2023-03-23T05:29:45;11.80;99.90
3202;DHT22;34843;48.744;8.958;2023-03-23T05:32:14;11.80;99.90
3202;DHT22;34843;48.744;8.958;2023-03-23T05:34:40;11.90;99.90
3202;DHT22;34843;48.744;8.958;2023-03-23T05:37:05;11.90;99.90
3202;DHT22;34843;48.744;8.958;2023-03-23T05:39:31;11.90;99.90
3202;DHT22;34843;48.744;8.958;2023-03-23T05:41:58;12.00;99.90
3202;DHT22;34843;48.744;8.958;2023-03-23T05:44:23;12.00;99.90
3202;DHT22;34843;48.744;8.958;2023-03-23T05:46:49;12.00;99.90
3202;DHT22;34843;48.744;8.958;2023-03-23T05:49:16;12.10;99.90
3202;DHT22;34843;48.744;8.958;2023-03-23T05:51:42;12.10;99.90
3202;DHT22;34843;48.744;8.958;2023-03-23T05:54:09;12.10;99.90
3202;DHT22;34843;48.744;8.958;2023-03-23T05:56:36;12.20;99.90
3202;DHT22;34843;48.744;8.958;2023-03-23T05:59:01;12.20;99.90
3202;DHT22;34843;48.744;8.958;2023-03-23T06:01:28;12.20;99.90
3202;DHT22;34843;48.744;8.958;2023-03-23T06:03:53;12.30;99.90
3202;DHT22;34843;48.744;8.958;2023-03-23T06:06:20;12.40;99.90
3202;DHT22;34843;48.744;8.958;2023-03-23T06:08:46;12.50;99.90
3202;DHT22;34843;48.744;8.958;2023-03-23T06:11:13;12.60;99.90
3202;DHT22;34843;48.744;8.958;2023-03-23T06:13:39;12.70;99.90
3202;DHT22;34843;48.744;8.958;2023-03-23T06:16:05;12.70;99.90
3202;DHT22;34843;48.744;8.958;2023-03-23T06:18:31;12.70;99.90
3202;DHT22;34843;48.744;8.958;2023-03-23T06:20:59;12.70;99.90
3202;DHT22;34843;48.744;8.958;2023-03-23T06:23:25;12.80;99.90
3202;DHT22;34843;48.744;8.958;2023-03-23T06:25:54;12.90;99.90
3202;DHT22;34843;48.744;8.958;2023-03-23T06:28:22;12.90;99.90
3202;DHT22;34843;48.744;8.958;2023-03-23T06:30:47;12.90;99.90
3202;DHT22;34843;48.744;8.958;2023-03-23T06:33:13;12.90;99.90
3202;DHT22;34843;48.744;8.958;2023-03-23T06:35:38;13.00;99.90
3202;DHT22;34843;48.744;8.958;2023-03-23T06:38:04;13.00;99.90
3202;DHT22;34843;48.744;8.958;2023-03-23T06:40:30;13.00;99.90
3202;DHT22;34843;48.744;8.958;2023-03-23T06:42:58;13.00;99.90
3202;DHT22;34843;48.744;8.958;2023-03-23T06:45:26;13.10;99.90
3202;DHT22;34843;48.744;8.958;2023-03-23T06:47:52;13.20;99.90
3202;DHT22;34843;48.744;8.958;2023-03-23T06:50:17;13.30;99.90
3202;DHT22;34843;48.744;8.958;2023-03-23T06:52:47;13.50;99.90
3202;DHT22;34843;48.744;8.958;2023-03-23T06:55:13;13.70;99.90
3202;DHT22;34843;48.744;8.958;2023-03-23T06:57:40;13.90;99.90
3202;DHT22;34843;48.744;8.958;2023-03-23T07:00:06;14.00;99.90
3202;DHT22;34843;48.744;8.958;2023-03-23T07:02:33;14.10;99.90
3202;DHT22;34843;48.744;8.958;2023-03-23T07:04:59;14.10;99.90
3202;DHT22;34843;48.744;8.958;2023-03-23T07:07:25;14.10;99.90
3202;DHT22;34843;48.744;8.958;2023-03-23T07:09:51;14.00;99.90
3202;DHT22;34843;48.744;8.958;2023-03-23T07:12:17;13.80;99.90
3202;DHT22;34843;48.744;8.958;2023-03-23T07:14:42;13.70;99.90
3202;DHT22;34843;48.744;8.958;2023-03-23T07:17:08;13.70;99.90
3202;DHT22;34843;48.744;8.958;2023-03-23T07:19:34;13.70;99.90
3202;DHT22;34843;48.744;8.958;2023-03-23T07:22:01;13.70;99.90
3202;DHT22;34843;48.744;8.958;2023-03-23T07:24:26;16.70;99.90
3202;DHT22;34843;48.744;8.958;2023-03-23T07:26:52;13.70;99.90
3202;DHT22;34843;48.744;8.958;2023-03-23T07:29:18;13.80;99.90
3202;DHT22;34843;48.744;8.958;2023-03-23T07:31:44;13.80;99.90
3202;DHT22;34843;48.744;8.958;2023-03-23T07:34:09;13.90;99.90
3202;DHT22;34843;48.744;8.958;2023-03-23T07:36:35;13.90;99.90
3202;DHT22;34843;48.744;8.958;2023-03-23T07:39:03;13.90;99.90
3202;DHT22;34843;48.744;8.958;2023-03-23T07:41:31;14.10;99.90
3202;DHT22;34843;48.744;8.958;2023-03-23T07:43:57;14.10;99.90
3202;DHT22;34843;48.744;8.958;2023-03-23T07:46:22;14.30;99.90
3202;DHT22;34843;48.744;8.958;2023-03-23T07:48:48;14.70;99.90
3202;DHT22;34843;48.744;8.958;2023-03-23T07:51:14;15.10;99.90
3202;DHT22;34843;48.744;8.958;2023-03-23T07:53:42;15.50;99.90
3202;DHT22;34843;48.744;8.958;2023-03-23T07:56:10;15.70;99.90
3202;DHT22;34843;48.744;8.958;2023-03-23T07:58:36;15.80;99.90
3202;DHT22;34843;48.744;8.958;2023-03-23T08:01:02;15.80;99.90
3202;DHT22;34843;48.744;8.958;2023-03-23T08:03:28;15.60;99.90
3202;DHT22;34843;48.744;8.958;2023-03-23T08:05:57;15.50;99.90
3202;DHT22;34843;48.744;8.958;2023-03-23T08:08:24;15.50;99.90
3202;DHT22;34843;48.744;8.958;2023-03-23T08:10:50;15.50;99.90
3202;DHT22;34843;48.744;8.958;2023-03-23T08:13:16;15.50;99.90
3202;DHT22;34843;48.744;8.958;2023-03-23T08:15:41;15.60;99.90
3202;DHT22;34843;48.744;8.958;2023-03-23T08:18:08;15.70;99.90
3202;DHT22;34843;48.744;8.958;2023-03-23T08:20:34;15.70;99.90
3202;DHT22;34843;48.744;8.958;2023-03-23T08:23:01;15.80;99.90
3202;DHT22;34843;48.744;8.958;2023-03-23T08:25:28;16.00;99.90
3202;DHT22;34843;48.744;8.958;2023-03-23T08:27:57;16.10;99.90
3202;DHT22;34843;48.744;8.958;2023-03-23T08:30:23;16.20;99.90
3202;DHT22;34843;48.744;8.958;2023-03-23T08:32:50;16.20;99.90
3202;DHT22;34843;48.744;8.958;2023-03-23T08:35:17;16.20;99.90
3202;DHT22;34843;48.744;8.958;2023-03-23T08:37:43;16.10;99.90
3202;DHT22;34843;48.744;8.958;2023-03-23T08:40:11;16.00;99.90
3202;DHT22;34843;48.744;8.958;2023-03-23T08:42:38;15.90;99.90
3202;DHT22;34843;48.744;8.958;2023-03-23T08:45:06;15.80;99.90
3202;DHT22;34843;48.744;8.958;2023-03-23T08:47:33;15.60;99.90
3202;DHT22;34843;48.744;8.958;2023-03-23T08:49:58;15.60;99.90
3202;DHT22;34843;48.744;8.958;2023-03-23T08:52:24;15.50;99.90
3202;DHT22;34843;48.744;8.958;2023-03-23T08:54:49;15.40;99.90
3202;DHT22;34843;48.744;8.958;2023-03-23T08:57:15;15.30;99.90
3202;DHT22;34843;48.744;8.958;2023-03-23T08:59:41;15.20;99.90
3202;DHT22;34843;48.744;8.958;2023-03-23T09:02:10;15.20;99.90
3202;DHT22;34843;48.744;8.958;2023-03-23T09:04:37;15.20;99.90
3202;DHT22;34843;48.744;8.958;2023-03-23T09:07:03;15.20;99.90
3202;DHT22;34843;48.744;8.958;2023-03-23T09:09:29;15.40;99.90
3202;DHT22;34843;48.744;8.958;2023-03-23T09:11:54;15.60;99.90
3202;DHT22;34843;48.744;8.958;2023-03-23T09:14:20;15.70;99.90
3202;DHT22;34843;48.744;8.958;2023-03-23T09:16:45;15.80;99.90
3202;DHT22;34843;48.744;8.958;2023-03-23T09:19:11;15.90;99.90
3202;DHT22;34843;48.744;8.958;2023-03-23T09:21:38;15.80;99.90
3202;DHT22;34843;48.744;8.958;2023-03-23T09:24:04;15.80;99.90
3202;DHT22;34843;48.744;8.958;2023-03-23T09:26:30;15.70;99.90
3202;DHT22;34843;48.744;8.958;2023-03-23T09:28:56;15.80;99.90
3202;DHT22;34843;48.744;8.958;2023-03-23T09:31:23;15.80;99.90
3202;DHT22;34843;48.744;8.958;2023-03-23T09:33:52;15.90;99.90
3202;DHT22;34843;48.744;8.958;2023-03-23T09:36:20;16.00;99.90
3202;DHT22;34843;48.744;8.958;2023-03-23T09:38:47;16.00;99.90
3202;DHT22;34843;48.744;8.958;2023-03-23T09:47:25;16.30;99.90
3202;DHT22;34843;48.744;8.958;2023-03-23T09:50:18;16.50;99.90
3202;DHT22;34843;48.744;8.958;2023-03-23T09:53:00;16.70;99.90
3202;DHT22;34843;48.744;8.958;2023-03-23T09:55:26;16.90;99.90
3202;DHT22;34843;48.744;8.958;2023-03-23T09:58:16;16.70;99.90
3202;DHT22;34843;48.744;8.958;2023-03-23T10:00:55;16.70;99.90
3202;DHT22;34843;48.744;8.958;2023-03-23T10:03:32;16.80;99.90
3202;DHT22;34843;48.744;8.958;2023-03-23T10:05:58;17.00;99.90
3202;DHT22;34843;48.744;8.958;2023-03-23T10:08:26;17.00;99.90
3202;DHT22;34843;48.744;8.958;2023-03-23T10:13:58;17.20;99.90
3202;DHT22;34843;48.744;8.958;2023-03-23T10:16:29;17.10;99.90
3202;DHT22;34843;48.744;8.958;2023-03-23T10:21:50;17.10;99.90
3202;DHT22;34843;48.744;8.958;2023-03-23T10:24:21;17.00;99.90
3202;DHT22;34843;48.744;8.958;2023-03-23T10:27:19;16.80;99.90
3202;DHT22;34843;48.744;8.958;2023-03-23T10:29:51;16.90;99.90
3202;DHT22;34843;48.744;8.958;2023-03-23T10:32:22;17.00;99.90
3202;DHT22;34843;48.744;8.958;2023-03-23T10:34:57;17.10;99.90
3202;DHT22;34843;48.744;8.958;2023-03-23T10:37:25;17.20;99.90
3202;DHT22;34843;48.744;8.958;2023-03-23T10:39:56;17.40;99.90
3202;DHT22;34843;48.744;8.958;2023-03-23T10:42:28;17.80;99.90
3202;DHT22;34843;48.744;8.958;2023-03-23T10:44:56;17.70;99.90
3202;DHT22;34843;48.744;8.958;2023-03-23T10:47:23;17.90;99.90
3202;DHT22;34843;48.744;8.958;2023-03-23T10:49:53;17.70;99.90
3202;DHT22;34843;48.744;8.958;2023-03-23T10:57:39;18.10;99.90
3202;DHT22;34843;48.744;8.958;2023-03-23T11:00:28;18.40;99.90
3202;DHT22;34843;48.744;8.958;2023-03-23T11:05:37;18.80;99.90
3202;DHT22;34843;48.744;8.958;2023-03-23T11:08:11;18.90;99.90
3202;DHT22;34843;48.744;8.958;2023-03-23T11:10:41;18.90;99.90
3202;DHT22;34843;48.744;8.958;2023-03-23T11:13:15;18.90;99.90
3202;DHT22;34843;48.744;8.958;2023-03-23T11:15:43;18.60;99.90
3202;DHT22;34843;48.744;8.958;2023-03-23T11:18:22;18.50;99.90
3202;DHT22;34843;48.744;8.958;2023-03-23T11:20:52;18.50;99.90
3202;DHT22;34843;48.744;8.958;2023-03-23T11:23:28;18.40;99.90
3202;DHT22;34843;48.744;8.958;2023-03-23T11:28:53;18.10;99.90
3202;DHT22;34843;48.744;8.958;2023-03-23T11:31:33;18.20;99.90
3202;DHT22;34843;48.744;8.958;2023-03-23T11:34:04;18.50;99.90
3202;DHT22;34843;48.744;8.958;2023-03-23T11:36:33;18.90;99.90
3202;DHT22;34843;48.744;8.958;2023-03-23T11:39:00;19.00;99.90
3202;DHT22;34843;48.744;8.958;2023-03-23T11:41:34;18.90;99.90
3202;DHT22;34843;48.744;8.958;2023-03-23T11:44:08;18.90;99.90
3202;DHT22;34843;48.744;8.958;2023-03-23T11:46:47;19.00;99.90
3202;DHT22;34843;48.744;8.958;2023-03-23T11:52:09;18.70;99.90
3202;DHT22;34843;48.744;8.958;2023-03-23T11:54:46;18.50;99.90
3202;DHT22;34843;48.744;8.958;2023-03-23T11:57:13;18.30;99.90
3202;DHT22;34843;48.744;8.958;2023-03-23T11:59:41;18.10;99.90
3202;DHT22;34843;48.744;8.958;2023-03-23T12:10:34;18.30;99.90
3202;DHT22;34843;48.744;8.958;2023-03-23T12:16:32;18.50;99.90
3202;DHT22;34843;48.744;8.958;2023-03-23T12:19:25;18.90;99.90
3202;DHT22;34843;48.744;8.958;2023-03-23T12:22:01;19.20;99.90
3202;DHT22;34843;48.744;8.958;2023-03-23T12:24:39;19.20;99.90
3202;DHT22;34843;48.744;8.958;2023-03-23T12:27:40;19.20;99.90
3202;DHT22;34843;48.744;8.958;2023-03-23T12:30:32;18.90;99.90
3202;DHT22;34843;48.744;8.958;2023-03-23T12:36:06;18.60;99.90
3202;DHT22;34843;48.744;8.958;2023-03-23T12:38:55;18.60;99.90
3202;DHT22;34843;48.744;8.958;2023-03-23T12:41:33;18.90;99.90
3202;DHT22;34843;48.744;8.958;2023-03-23T12:44:06;18.90;99.90
3202;DHT22;34843;48.744;8.958;2023-03-23T12:46:54;19.00;99.90
3202;DHT22;34843;48.744;8.958;2023-03-23T12:49:46;19.00;99.90
3202;DHT22;34843;48.744;8.958;2023-03-23T12:54:59;18.90;99.90
3202;DHT22;34843;48.744;8.958;2023-03-23T12:57:37;18.80;99.90
3202;DHT22;34843;48.744;8.958;2023-03-23T13:03:18;18.90;99.90
3202;DHT22;34843;48.744;8.958;2023-03-23T13:05:52;19.10;99.90
3202;DHT22;34843;48.744;8.958;2023-03-23T13:08:31;19.30;99.90
3202;DHT22;34843;48.744;8.958;2023-03-23T13:11:03;19.40;99.90
3202;DHT22;34843;48.744;8.958;2023-03-23T13:16:35;19.70;99.90
3202;DHT22;34843;48.744;8.958;2023-03-23T13:22:09;19.80;99.90
3202;DHT22;34843;48.744;8.958;2023-03-23T13:24:54;19.90;99.90
3202;DHT22;34843;48.744;8.958;2023-03-23T13:27:25;19.90;99.90
3202;DHT22;34843;48.744;8.958;2023-03-23T13:29:54;19.90;99.90
3202;DHT22;34843;48.744;8.958;2023-03-23T13:32:21;20.10;99.90
3202;DHT22;34843;48.744;8.958;2023-03-23T13:34:48;20.30;99.90
3202;DHT22;34843;48.744;8.958;2023-03-23T13:37:26;20.40;99.90
3202;DHT22;34843;48.744;8.958;2023-03-23T13:39:53;20.50;99.90
3202;DHT22;34843;48.744;8.958;2023-03-23T13:42:26;20.50;99.90
3202;DHT22;34843;48.744;8.958;2023-03-23T13:49:59;20.20;99.90
3202;DHT22;34843;48.744;8.958;2023-03-23T13:57:58;19.40;99.90
3202;DHT22;34843;48.744;8.958;2023-03-23T14:03:35;19.10;99.90
3202;DHT22;34843;48.744;8.958;2023-03-23T14:06:20;19.00;99.90
3202;DHT22;34843;48.744;8.958;2023-03-23T14:08:49;19.10;99.90
3202;DHT22;34843;48.744;8.958;2023-03-23T14:11:24;19.10;99.90
3202;DHT22;34843;48.744;8.958;2023-03-23T14:16:32;19.00;99.90
3202;DHT22;34843;48.744;8.958;2023-03-23T14:19:02;19.00;99.90
3202;DHT22;34843;48.744;8.958;2023-03-23T14:21:34;19.00;99.90
3202;DHT22;34843;48.744;8.958;2023-03-23T14:24:02;19.00;99.90
3202;DHT22;34843;48.744;8.958;2023-03-23T14:26:28;19.00;99.90
3202;DHT22;34843;48.744;8.958;2023-03-23T14:28:54;18.70;99.90
3202;DHT22;34843;48.744;8.958;2023-03-23T14:31:23;18.70;99.90
3202;DHT22;34843;48.744;8.958;2023-03-23T14:33:50;18.70;99.90
3202;DHT22;34843;48.744;8.958;2023-03-23T14:36:26;18.90;99.90
3202;DHT22;34843;48.744;8.958;2023-03-23T14:39:07;19.00;99.90
3202;DHT22;34843;48.744;8.958;2023-03-23T14:41:38;18.90;99.90
3202;DHT22;34843;48.744;8.958;2023-03-23T14:44:06;18.90;99.90
3202;DHT22;34843;48.744;8.958;2023-03-23T14:46:33;18.90;99.90
3202;DHT22;34843;48.744;8.958;2023-03-23T14:49:01;19.00;99.90
3202;DHT22;34843;48.744;8.958;2023-03-23T14:51:27;18.90;99.90
3202;DHT22;34843;48.744;8.958;2023-03-23T14:53:53;18.80;99.90
3202;DHT22;34843;48.744;8.958;2023-03-23T14:56:21;18.80;99.90
3202;DHT22;34843;48.744;8.958;2023-03-23T14:58:52;18.60;99.90
3202;DHT22;34843;48.744;8.958;2023-03-23T15:01:29;18.50;99.90
3202;DHT22;34843;48.744;8.958;2023-03-23T15:04:21;18.60;99.90
3202;DHT22;34843;48.744;8.958;2023-03-23T15:06:54;18.60;99.90
3202;DHT22;34843;48.744;8.958;2023-03-23T15:09:22;18.70;99.90
3202;DHT22;34843;48.744;8.958;2023-03-23T15:12:03;18.60;99.90
3202;DHT22;34843;48.744;8.958;2023-03-23T15:14:32;18.60;99.90
3202;DHT22;34843;48.744;8.958;2023-03-23T15:17:01;18.50;99.90
3202;DHT22;34843;48.744;8.958;2023-03-23T15:19:40;18.40;99.90
3202;DHT22;34843;48.744;8.958;2023-03-23T15:22:23;18.30;99.90
3202;DHT22;34843;48.744;8.958;2023-03-23T15:24:50;18.20;99.90
3202;DHT22;34843;48.744;8.958;2023-03-23T15:27:25;18.10;99.90
3202;DHT22;34843;48.744;8.958;2023-03-23T15:29:57;18.00;99.90
3202;DHT22;34843;48.744;8.958;2023-03-23T15:32:28;17.90;99.90
3202;DHT22;34843;48.744;8.958;2023-03-23T15:34:55;17.80;99.90
3202;DHT22;34843;48.744;8.958;2023-03-23T15:37:29;17.70;99.90
3202;DHT22;34843;48.744;8.958;2023-03-23T15:39:57;17.70;99.90
3202;DHT22;34843;48.744;8.958;2023-03-23T15:42:30;17.50;99.90
3202;DHT22;34843;48.744;8.958;2023-03-23T15:52:51;17.30;99.90
3202;DHT22;34843;48.744;8.958;2023-03-23T15:55:24;17.20;99.90
3202;DHT22;34843;48.744;8.958;2023-03-23T15:57:50;17.20;99.90
3202;DHT22;34843;48.744;8.958;2023-03-23T16:00:17;17.20;99.90
3202;DHT22;34843;48.744;8.958;2023-03-23T16:02:46;17.10;99.90
3202;DHT22;34843;48.744;8.958;2023-03-23T16:05:12;17.10;99.90
3202;DHT22;34843;48.744;8.958;2023-03-23T16:07:38;16.90;99.90
3202;DHT22;34843;48.744;8.958;2023-03-23T16:10:05;16.80;99.90
3202;DHT22;34843;48.744;8.958;2023-03-23T16:12:31;16.70;99.90
3202;DHT22;34843;48.744;8.958;2023-03-23T16:14:57;16.70;99.90
3202;DHT22;34843;48.744;8.958;2023-03-23T16:17:22;16.60;99.90
3202;DHT22;34843;48.744;8.958;2023-03-23T16:19:48;16.60;99.90
3202;DHT22;34843;48.744;8.958;2023-03-23T16:22:14;16.60;99.90
3202;DHT22;34843;48.744;8.958;2023-03-23T16:24:39;16.60;99.90
3202;DHT22;34843;48.744;8.958;2023-03-23T16:27:05;16.60;99.90
3202;DHT22;34843;48.744;8.958;2023-03-23T16:29:31;16.50;99.90
3202;DHT22;34843;48.744;8.958;2023-03-23T16:31:56;16.50;99.90
3202;DHT22;34843;48.744;8.958;2023-03-23T16:34:22;16.40;99.90
3202;DHT22;34843;48.744;8.958;2023-03-23T16:36:47;16.40;99.90
3202;DHT22;34843;48.744;8.958;2023-03-23T16:39:13;16.20;99.90
3202;DHT22;34843;48.744;8.958;2023-03-23T16:41:43;16.00;99.90
3202;DHT22;34843;48.744;8.958;2023-03-23T16:44:09;16.00;99.90
3202;DHT22;34843;48.744;8.958;2023-03-23T16:46:35;15.90;99.90
3202;DHT22;34843;48.744;8.958;2023-03-23T16:49:00;15.90;99.90
3202;DHT22;34843;48.744;8.958;2023-03-23T16:51:26;15.80;99.90
3202;DHT22;34843;48.744;8.958;2023-03-23T16:53:51;15.80;99.90
3202;DHT22;34843;48.744;8.958;2023-03-23T16:56:17;15.70;99.90
3202;DHT22;34843;48.744;8.958;2023-03-23T16:58:43;15.80;99.90
3202;DHT22;34843;48.744;8.958;2023-03-23T17:01:08;15.70;99.90
3202;DHT22;34843;48.744;8.958;2023-03-23T17:03:34;15.70;99.90
3202;DHT22;34843;48.744;8.958;2023-03-23T17:06:00;15.70;99.90
3202;DHT22;34843;48.744;8.958;2023-03-23T17:08:26;15.60;99.90
3202;DHT22;34843;48.744;8.958;2023-03-23T17:10:52;15.60;99.90
3202;DHT22;34843;48.744;8.958;2023-03-23T17:13:18;15.60;99.90
3202;DHT22;34843;48.744;8.958;2023-03-23T17:15:45;15.60;99.90
3202;DHT22;34843;48.744;8.958;2023-03-23T17:18:10;15.60;99.90
3202;DHT22;34843;48.744;8.958;2023-03-23T17:20:36;15.50;99.90
3202;DHT22;34843;48.744;8.958;2023-03-23T17:23:03;15.50;99.90
3202;DHT22;34843;48.744;8.958;2023-03-23T17:25:28;15.40;99.90
3202;DHT22;34843;48.744;8.958;2023-03-23T17:27:56;15.30;99.90
3202;DHT22;34843;48.744;8.958;2023-03-23T17:30:22;15.30;99.90